Time;durP1;ratioP1;P1;durP2;ratioP2;P2;SDS_P1;SDS_P2;PMS_P1;PMS_P2;Temp;Humidity;BMP_temperature;BMP_pressure;BME280_temperature;BME280_humidity;BME280_pressure;Samples;Min_cycle;Max_cycle;Signal;HPM_P1;HPM_P2
2021/12/25 00:02:16;0.00;0.00;0.62;0.00;0.00;0.62;1.20;0.70;;;19.80;27.90;;;;;;2264486;61;20587;-53
2021/12/25 00:05:00;0.00;0.00;0.62;0.00;0.00;0.62;1.47;0.70;;;19.80;27.90;;;;;;2265368;61;20433;-51
2021/12/25 00:07:46;0.00;0.00;0.62;0.00;0.00;0.62;1.97;0.80;;;19.80;28.00;;;;;;2264833;61;20376;-55
2021/12/25 00:10:32;0.00;0.00;0.62;0.00;0.00;0.62;1.20;0.63;;;19.80;28.00;;;;;;2265267;61;20423;-55
2021/12/25 00:13:20;0.00;0.00;0.62;0.00;0.00;0.62;1.90;0.60;;;19.80;28.00;;;;;;2265592;61;20388;-54
2021/12/25 00:16:06;0.00;0.00;0.62;0.00;0.00;0.62;1.30;0.60;;;19.80;28.00;;;;;;2264612;61;20396;-54
2021/12/25 00:18:51;0.00;0.00;0.62;0.00;0.00;0.62;1.60;0.60;;;19.80;28.00;;;;;;2265295;61;20377;-54
2021/12/25 00:21:35;0.00;0.00;0.62;0.00;0.00;0.62;1.20;0.60;;;19.80;28.00;;;;;;2265195;61;20697;-52
2021/12/25 00:24:21;0.00;0.00;0.62;0.00;0.00;0.62;1.10;0.60;;;19.80;28.10;;;;;;2265199;61;20437;-53
2021/12/25 00:27:22;0.00;0.00;0.62;0.00;0.00;0.62;1.30;0.90;;;19.80;28.10;;;;;;2266043;61;20760;-56
2021/12/25 00:30:28;0.00;0.00;0.62;0.00;0.00;0.62;1.20;0.60;;;19.80;28.10;;;;;;2265590;61;20638;-53
2021/12/25 00:36:19;0.00;0.00;0.62;0.00;0.00;0.62;1.20;0.60;;;19.80;28.20;;;;;;2265509;61;20377;-55
2021/12/25 00:39:04;0.00;0.00;0.62;0.00;0.00;0.62;1.30;0.60;;;19.80;28.20;;;;;;2265741;61;20595;-55
2021/12/25 00:41:50;0.00;0.00;0.62;0.00;0.00;0.62;1.27;0.60;;;19.80;28.20;;;;;;2266556;61;20380;-56
2021/12/25 00:44:34;0.00;0.00;0.62;0.00;0.00;0.62;1.20;0.60;;;19.80;28.20;;;;;;2265369;61;20357;-57
2021/12/25 00:47:20;0.00;0.00;0.62;0.00;0.00;0.62;1.10;0.60;;;19.80;28.20;;;;;;2266019;61;20415;-56
2021/12/25 00:50:07;0.00;0.00;0.62;0.00;0.00;0.62;1.10;0.53;;;19.80;28.20;;;;;;2265928;61;20563;-56
2021/12/25 00:52:51;0.00;0.00;0.62;0.00;0.00;0.62;1.73;0.60;;;19.80;28.30;;;;;;2265277;61;20411;-53
2021/12/25 00:55:36;0.00;0.00;0.62;0.00;0.00;0.62;1.20;0.60;;;19.80;28.30;;;;;;2263622;61;20362;-56
2021/12/25 00:58:22;0.00;0.00;0.62;0.00;0.00;0.62;1.20;0.60;;;19.80;28.40;;;;;;2261417;61;20718;-54
2021/12/25 01:01:08;0.00;0.00;0.62;0.00;0.00;0.62;1.20;0.60;;;19.80;28.40;;;;;;2261371;61;20496;-51
2021/12/25 01:03:53;0.00;0.00;0.62;0.00;0.00;0.62;1.93;0.60;;;19.80;28.30;;;;;;2261897;61;20373;-57
2021/12/25 01:06:39;0.00;0.00;0.62;0.00;0.00;0.62;1.20;0.60;;;19.80;28.40;;;;;;2260921;61;20408;-56
2021/12/25 01:09:25;0.00;0.00;0.62;0.00;0.00;0.62;1.20;0.60;;;19.80;28.40;;;;;;2261597;61;20350;-56
2021/12/25 01:12:11;0.00;0.00;0.62;0.00;0.00;0.62;1.30;0.60;;;19.80;28.40;;;;;;2261863;61;20477;-55
2021/12/25 01:14:59;0.00;0.00;0.62;0.00;0.00;0.62;2.07;0.60;;;19.80;28.40;;;;;;2261248;61;20385;-57
2021/12/25 01:21:15;0.00;0.00;0.62;0.00;0.00;0.62;1.20;0.60;;;19.80;28.40;;;;;;2261101;61;20745;-53
2021/12/25 01:24:25;0.00;0.00;0.62;0.00;0.00;0.62;1.40;0.60;;;19.80;28.40;;;;;;2261831;61;20393;-54
2021/12/25 01:30:18;0.00;0.00;0.62;0.00;0.00;0.62;1.10;0.60;;;19.80;28.40;;;;;;2260900;61;20358;-55
2021/12/25 01:40:50;0.00;0.00;0.62;0.00;0.00;0.62;1.20;0.60;;;19.80;28.50;;;;;;2257141;61;20441;-57
2021/12/25 01:50:30;0.00;0.00;0.62;0.00;0.00;0.62;1.20;0.60;;;19.70;28.40;;;;;;2261189;61;20382;-55
2021/12/25 01:53:14;0.00;0.00;0.62;0.00;0.00;0.62;1.20;0.60;;;19.80;28.50;;;;;;2261554;61;20743;-55
2021/12/25 01:55:59;0.00;0.00;0.62;0.00;0.00;0.62;1.30;0.60;;;19.70;28.50;;;;;;2261589;61;20382;-54
2021/12/25 01:58:44;0.00;0.00;0.62;0.00;0.00;0.62;1.20;0.60;;;19.80;28.50;;;;;;2260832;61;20425;-53
2021/12/25 02:01:29;0.00;0.00;0.62;0.00;0.00;0.62;1.10;0.60;;;19.80;28.50;;;;;;2261281;61;20350;-58
2021/12/25 02:04:15;0.00;0.00;0.62;0.00;0.00;0.62;1.27;0.60;;;19.80;28.50;;;;;;2261954;61;20377;-55
2021/12/25 02:07:00;0.00;0.00;0.62;0.00;0.00;0.62;1.10;0.50;;;19.80;28.50;;;;;;2260533;61;20640;-54
2021/12/25 02:09:46;0.00;0.00;0.62;0.00;0.00;0.62;1.10;0.50;;;19.80;28.50;;;;;;2261397;61;20392;-52
2021/12/25 02:12:33;0.00;0.00;0.62;0.00;0.00;0.62;1.20;0.60;;;19.80;28.50;;;;;;2260919;61;20604;-57
2021/12/25 02:15:21;0.00;0.00;0.62;0.00;0.00;0.62;1.10;0.50;;;19.80;28.50;;;;;;2258019;61;20353;-60
2021/12/25 02:18:27;0.00;0.00;0.62;0.00;0.00;0.62;1.20;0.60;;;19.80;28.50;;;;;;2261282;61;20417;-56
2021/12/25 02:21:26;0.00;0.00;0.62;0.00;0.00;0.62;1.10;0.60;;;19.80;28.50;;;;;;2260386;61;20416;-56
2021/12/25 02:24:12;0.00;0.00;0.62;0.00;0.00;0.62;1.17;0.60;;;19.80;28.60;;;;;;2261126;61;20694;-57
2021/12/25 02:26:57;0.00;0.00;0.62;0.00;0.00;0.62;1.20;0.70;;;19.80;28.60;;;;;;2261449;61;20382;-57
2021/12/25 02:29:44;0.00;0.00;0.62;0.00;0.00;0.62;1.30;0.60;;;19.80;28.60;;;;;;2261036;61;20377;-60
2021/12/25 02:32:28;0.00;0.00;0.62;0.00;0.00;0.62;1.30;0.60;;;19.80;28.60;;;;;;2261729;61;20446;-57
2021/12/25 02:35:15;0.00;0.00;0.62;0.00;0.00;0.62;1.10;0.50;;;19.80;28.60;;;;;;2260274;61;20400;-57
2021/12/25 02:38:01;0.00;0.00;0.62;0.00;0.00;0.62;1.30;0.60;;;19.80;28.60;;;;;;2260797;61;20431;-54
2021/12/25 02:40:46;0.00;0.00;0.62;0.00;0.00;0.62;2.13;0.70;;;19.80;28.60;;;;;;2261465;61;20793;-57
2021/12/25 02:43:32;0.00;0.00;0.62;0.00;0.00;0.62;1.50;0.67;;;19.80;28.60;;;;;;2260430;61;20354;-59
2021/12/25 02:46:17;0.00;0.00;0.62;0.00;0.00;0.62;1.10;0.60;;;19.90;28.60;;;;;;2260615;61;20385;-60
2021/12/25 02:49:03;0.00;0.00;0.62;0.00;0.00;0.62;1.20;0.60;;;19.90;28.60;;;;;;2261371;61;20365;-55
2021/12/25 02:51:48;0.00;0.00;0.62;0.00;0.00;0.62;1.10;0.50;;;19.90;28.50;;;;;;2260655;61;20370;-57
2021/12/25 02:54:35;0.00;0.00;0.62;0.00;0.00;0.62;1.20;0.63;;;19.90;28.40;;;;;;2261033;61;20358;-56
2021/12/25 02:57:20;0.00;0.00;0.62;0.00;0.00;0.62;1.20;0.70;;;19.90;28.30;;;;;;2260354;61;20385;-53
2021/12/25 03:00:08;0.00;0.00;0.62;0.00;0.00;0.62;1.30;0.60;;;19.90;28.20;;;;;;2261226;61;20432;-57
2021/12/25 03:02:53;0.00;0.00;0.62;0.00;0.00;0.62;1.30;0.60;;;19.80;27.90;;;;;;2261831;61;20362;-57
2021/12/25 03:05:38;0.00;0.00;0.62;0.00;0.00;0.62;1.83;0.70;;;19.80;27.80;;;;;;2260288;61;20754;-55
2021/12/25 03:08:23;0.00;0.00;0.62;0.00;0.00;0.62;1.20;0.60;;;19.80;27.70;;;;;;2260143;61;20715;-58
2021/12/25 03:11:14;0.00;0.00;0.62;0.00;0.00;0.62;1.30;0.70;;;19.80;27.60;;;;;;2261308;61;20354;-55
2021/12/25 03:14:11;0.00;0.00;0.62;0.00;0.00;0.62;1.50;0.80;;;19.80;27.50;;;;;;2260862;61;20369;-59
2021/12/25 03:16:56;0.00;0.00;0.62;0.00;0.00;0.62;1.53;0.80;;;19.80;27.40;;;;;;2261476;61;20494;-57
2021/12/25 03:19:40;0.00;0.00;0.62;0.00;0.00;0.62;1.30;0.60;;;19.70;27.80;;;;;;2260018;61;20393;-55
2021/12/25 03:22:25;0.00;0.00;0.62;0.00;0.00;0.62;1.20;0.60;;;19.70;27.20;;;;;;2261167;61;20397;-58
2021/12/25 03:25:13;0.00;0.00;0.62;0.00;0.00;0.62;1.30;0.70;;;19.70;27.20;;;;;;2261328;61;20377;-58
2021/12/25 03:27:59;0.00;0.00;0.62;0.00;0.00;0.62;1.40;0.67;;;19.70;27.10;;;;;;2260299;61;20382;-56
2021/12/25 03:30:44;0.00;0.00;0.62;0.00;0.00;0.62;1.20;0.70;;;19.60;26.90;;;;;;2260801;61;20374;-57
2021/12/25 03:33:29;0.00;0.00;0.62;0.00;0.00;0.62;1.40;0.67;;;19.60;26.90;;;;;;2261311;61;20354;-57
2021/12/25 03:36:14;0.00;0.00;0.62;0.00;0.00;0.62;1.40;0.70;;;19.60;26.90;;;;;;2260573;61;20405;-56
2021/12/25 03:39:00;0.00;0.00;0.62;0.00;0.00;0.62;1.63;0.77;;;19.60;26.80;;;;;;2261252;61;20389;-59
2021/12/25 03:41:45;0.00;0.00;0.62;0.00;0.00;0.62;1.20;0.60;;;19.60;26.80;;;;;;2257706;61;20358;-54
2021/12/25 03:44:35;0.00;0.00;0.62;0.00;0.00;0.62;1.30;0.80;;;19.60;26.80;;;;;;2261060;61;20729;-56
2021/12/25 03:47:28;0.00;0.00;0.62;0.00;0.00;0.62;2.00;0.73;;;19.50;26.70;;;;;;2261460;61;20385;-57
2021/12/25 03:57:34;0.00;0.00;0.62;0.00;0.00;0.62;1.87;0.70;;;19.50;26.60;;;;;;2261286;61;20366;-57
2021/12/25 03:59:35;0.00;0.00;0.62;0.00;0.00;0.62;1.43;0.70;;;19.40;26.50;;;;;;2260558;61;20389;-56
2021/12/25 04:02:26;0.00;0.00;0.62;0.00;0.00;0.62;1.33;0.60;;;19.30;26.50;;;;;;2262246;61;20373;-57
2021/12/25 04:05:16;0.00;0.00;0.62;0.00;0.00;0.62;1.40;0.80;;;19.30;26.40;;;;;;2260981;61;20644;-56
2021/12/25 04:10:53;0.00;0.00;0.62;0.00;0.00;0.62;1.20;0.70;;;19.30;26.40;;;;;;2261318;61;20614;-57
2021/12/25 04:13:38;0.00;0.00;0.62;0.00;0.00;0.62;1.43;0.90;;;19.30;26.40;;;;;;2260746;61;20372;-57
2021/12/25 04:16:28;0.00;0.00;0.62;0.00;0.00;0.62;1.20;0.73;;;19.20;26.30;;;;;;2262238;61;20488;-58
2021/12/25 04:19:13;0.00;0.00;0.62;0.00;0.00;0.62;1.30;0.60;;;19.20;26.30;;;;;;2260747;61;20742;-53
2021/12/25 04:22:03;0.00;0.00;0.62;0.00;0.00;0.62;1.40;0.70;;;19.20;26.30;;;;;;2261247;61;20349;-57
2021/12/25 04:24:50;0.00;0.00;0.62;0.00;0.00;0.62;1.57;0.80;;;19.20;26.80;;;;;;2261826;61;20361;-56
2021/12/25 04:27:36;0.00;0.00;0.62;0.00;0.00;0.62;1.20;0.60;;;19.20;26.30;;;;;;2260867;61;20448;-58
2021/12/25 04:30:39;0.00;0.00;0.62;0.00;0.00;0.62;1.40;0.70;;;19.10;26.20;;;;;;2261779;61;20468;-58
2021/12/25 05:04:38;0.00;0.00;0.62;0.00;0.00;0.62;2.90;0.83;;;18.80;25.80;;;;;;2261272;61;20412;-56
2021/12/25 05:07:32;0.00;0.00;0.62;0.00;0.00;0.62;2.03;1.13;;;18.70;25.70;;;;;;2261486;61;20389;-56
2021/12/25 05:10:17;0.00;0.00;0.62;0.00;0.00;0.62;1.50;0.80;;;18.70;25.70;;;;;;2261093;61;20362;-57
2021/12/25 05:13:02;0.00;0.00;0.62;0.00;0.00;0.62;1.50;0.80;;;18.70;25.70;;;;;;2261322;61;20578;-56
2021/12/25 05:15:47;0.00;0.00;0.62;0.00;0.00;0.62;1.50;0.83;;;18.70;25.70;;;;;;2261618;61;20365;-57
2021/12/25 05:18:32;0.00;0.00;0.62;0.00;0.00;0.62;1.90;0.70;;;18.60;25.60;;;;;;2260645;61;20452;-59
2021/12/25 05:21:19;0.00;0.00;0.62;0.00;0.00;0.62;1.87;0.90;;;18.60;25.60;;;;;;2261143;61;20409;-58
2021/12/25 05:24:05;0.00;0.00;0.62;0.00;0.00;0.62;1.97;0.70;;;18.60;25.60;;;;;;2261638;61;20681;-58
2021/12/25 05:26:57;0.00;0.00;0.62;0.00;0.00;0.62;1.50;0.70;;;18.60;25.60;;;;;;2260374;61;20397;-55
2021/12/25 05:29:46;0.00;0.00;0.62;0.00;0.00;0.62;1.30;0.70;;;18.60;25.60;;;;;;2261556;61;20362;-55
2021/12/25 05:32:31;0.00;0.00;0.62;0.00;0.00;0.62;2.80;1.00;;;18.50;25.50;;;;;;2260960;61;20362;-57
2021/12/25 05:35:45;0.00;0.00;0.62;0.00;0.00;0.62;1.60;0.70;;;18.50;25.50;;;;;;2251816;61;20408;-58
2021/12/25 05:38:44;0.00;0.00;0.62;0.00;0.00;0.62;1.30;0.70;;;18.50;25.50;;;;;;2261663;61;20400;-56
2021/12/25 05:41:34;0.00;0.00;0.62;0.00;0.00;0.62;1.40;0.80;;;18.50;25.50;;;;;;2260753;61;20386;-57
2021/12/25 05:44:25;0.00;0.00;0.62;0.00;0.00;0.62;1.23;0.60;;;18.40;25.50;;;;;;2261305;61;20365;-57
2021/12/25 05:47:29;0.00;0.00;0.62;0.00;0.00;0.62;1.47;0.70;;;18.40;25.50;;;;;;2261084;61;20789;-58
2021/12/25 05:50:35;0.00;0.00;0.62;0.00;0.00;0.62;1.30;0.70;;;18.40;25.50;;;;;;2261042;61;20354;-58
2021/12/25 05:53:35;0.00;0.00;0.62;0.00;0.00;0.62;1.50;0.77;;;18.40;25.50;;;;;;2261400;61;20358;-56
2021/12/25 05:56:40;0.00;0.00;0.62;0.00;0.00;0.62;1.40;0.70;;;18.30;25.40;;;;;;2260604;61;20409;-57
2021/12/25 05:59:44;0.00;0.00;0.62;0.00;0.00;0.62;1.27;0.70;;;18.30;25.40;;;;;;2262016;61;20365;-58
2021/12/25 06:02:58;0.00;0.00;0.62;0.00;0.00;0.62;1.50;0.87;;;18.20;25.30;;;;;;2261029;61;20612;-57
2021/12/25 06:05:47;0.00;0.00;0.62;0.00;0.00;0.62;1.30;0.70;;;18.20;25.30;;;;;;2260818;61;20433;-53
2021/12/25 06:08:32;0.00;0.00;0.62;0.00;0.00;0.62;1.70;0.80;;;18.20;25.30;;;;;;2261896;61;20458;-57
2021/12/25 06:11:17;0.00;0.00;0.62;0.00;0.00;0.62;1.40;0.70;;;18.20;25.30;;;;;;2260908;61;20349;-57
2021/12/25 06:14:17;0.00;0.00;0.62;0.00;0.00;0.62;1.20;0.73;;;18.10;25.30;;;;;;2261051;61;20734;-58
2021/12/25 06:17:17;0.00;0.00;0.62;0.00;0.00;0.62;2.67;0.97;;;18.10;25.30;;;;;;2260406;61;20382;-58
2021/12/25 06:20:15;0.00;0.00;0.62;0.00;0.00;0.62;1.30;0.77;;;18.10;25.20;;;;;;2260784;61;20401;-59
2021/12/25 06:23:23;0.00;0.00;0.62;0.00;0.00;0.62;1.20;0.70;;;18.00;25.00;;;;;;2261327;61;20592;-56
2021/12/25 06:26:28;0.00;0.00;0.62;0.00;0.00;0.62;1.40;0.70;;;18.00;25.00;;;;;;2260643;61;20799;-54
2021/12/25 06:29:33;0.00;0.00;0.62;0.00;0.00;0.62;1.30;0.70;;;18.00;25.10;;;;;;2261936;61;20389;-58
2021/12/25 06:32:40;0.00;0.00;0.62;0.00;0.00;0.62;1.70;0.67;;;17.90;25.10;;;;;;2260747;61;20397;-57
2021/12/25 06:35:51;0.00;0.00;0.62;0.00;0.00;0.62;1.30;0.63;;;17.90;25.10;;;;;;2258483;61;20389;-56
2021/12/25 06:38:58;0.00;0.00;0.62;0.00;0.00;0.62;1.30;0.80;;;17.90;25.10;;;;;;2261210;61;20382;-56
2021/12/25 06:41:50;0.00;0.00;0.62;0.00;0.00;0.62;1.40;0.60;;;17.90;25.10;;;;;;2261088;61;20505;-56
2021/12/25 06:44:38;0.00;0.00;0.62;0.00;0.00;0.62;1.60;0.80;;;17.80;25.10;;;;;;2261447;61;20501;-56
2021/12/25 06:47:22;0.00;0.00;0.62;0.00;0.00;0.62;1.30;0.77;;;17.80;25.10;;;;;;2261002;61;20838;-56
2021/12/25 06:50:10;0.00;0.00;0.62;0.00;0.00;0.62;2.07;1.10;;;17.80;25.10;;;;;;2260743;61;20347;-53
2021/12/25 06:53:14;0.00;0.00;0.62;0.00;0.00;0.62;3.40;0.80;;;17.80;25.10;;;;;;2261795;61;20724;-57
2021/12/25 06:56:25;0.00;0.00;0.62;0.00;0.00;0.62;2.17;1.00;;;17.70;25.00;;;;;;2257909;61;20397;-59
2021/12/25 06:59:17;0.00;0.00;0.62;0.00;0.00;0.62;1.40;0.70;;;17.70;25.00;;;;;;2261496;61;20409;-56
2021/12/25 07:02:05;0.00;0.00;0.62;0.00;0.00;0.62;1.20;0.60;;;17.70;24.90;;;;;;2260334;61;20390;-59
2021/12/25 07:05:25;0.00;0.00;0.62;0.00;0.00;0.62;1.40;0.70;;;17.70;24.90;;;;;;2261076;61;20362;-54
2021/12/25 07:08:30;0.00;0.00;0.62;0.00;0.00;0.62;1.70;0.80;;;17.70;25.00;;;;;;2259150;61;20382;-57
2021/12/25 07:11:43;0.00;0.00;0.62;0.00;0.00;0.62;2.37;0.77;;;17.60;24.90;;;;;;2260069;61;20429;-54
2021/12/25 07:14:44;0.00;0.00;0.62;0.00;0.00;0.62;2.30;0.70;;;17.60;24.90;;;;;;2261655;61;20581;-57
2021/12/25 07:17:41;0.00;0.00;0.62;0.00;0.00;0.62;1.47;0.70;;;17.60;24.80;;;;;;2260229;61;20798;-57
2021/12/25 07:20:39;0.00;0.00;0.62;0.00;0.00;0.62;2.13;0.90;;;17.60;24.90;;;;;;2261074;61;20382;-54
2021/12/25 07:23:33;0.00;0.00;0.62;0.00;0.00;0.62;1.70;0.93;;;17.50;24.70;;;;;;2260674;61;20726;-57
2021/12/25 07:26:27;0.00;0.00;0.62;0.00;0.00;0.62;2.37;0.90;;;17.50;24.70;;;;;;2260549;61;20382;-54
2021/12/25 07:29:26;0.00;0.00;0.62;0.00;0.00;0.62;1.77;0.80;;;17.50;24.50;;;;;;2261506;61;20365;-54
2021/12/25 07:32:11;0.00;0.00;0.62;0.00;0.00;0.62;1.20;0.70;;;17.50;24.60;;;;;;2260470;61;20353;-59
2021/12/25 07:34:57;0.00;0.00;0.62;0.00;0.00;0.62;1.60;0.70;;;17.50;24.50;;;;;;2261071;61;20508;-53
2021/12/25 07:37:42;0.00;0.00;0.62;0.00;0.00;0.62;1.40;0.83;;;17.40;24.50;;;;;;2262375;61;20742;-58
2021/12/25 07:40:26;0.00;0.00;0.62;0.00;0.00;0.62;1.50;0.70;;;17.40;24.50;;;;;;2261611;61;20382;-57
2021/12/25 07:43:11;0.00;0.00;0.62;0.00;0.00;0.62;2.90;0.90;;;17.40;24.50;;;;;;2262391;61;20722;-55
2021/12/25 07:46:15;0.00;0.00;0.62;0.00;0.00;0.62;2.03;0.97;;;17.40;24.50;;;;;;2261277;61;20377;-59
2021/12/25 07:48:59;0.00;0.00;0.62;0.00;0.00;0.62;1.67;0.70;;;17.30;24.50;;;;;;2261887;61;20784;-57
2021/12/25 07:51:46;0.00;0.00;0.62;0.00;0.00;0.62;1.37;0.77;;;17.40;24.50;;;;;;2262327;61;20350;-55
2021/12/25 07:54:31;0.00;0.00;0.62;0.00;0.00;0.62;1.50;0.80;;;17.30;24.50;;;;;;2261104;61;20361;-54
2021/12/25 07:57:16;0.00;0.00;0.62;0.00;0.00;0.62;1.60;0.70;;;17.30;24.50;;;;;;2261913;61;20389;-57
2021/12/25 08:00:01;0.00;0.00;0.62;0.00;0.00;0.62;2.43;1.07;;;17.30;24.40;;;;;;2262198;61;20420;-57
2021/12/25 08:02:46;0.00;0.00;0.62;0.00;0.00;0.62;2.23;0.80;;;17.30;24.40;;;;;;2261769;61;20413;-58
2021/12/25 08:05:31;0.00;0.00;0.62;0.00;0.00;0.62;2.43;0.90;;;17.30;24.40;;;;;;2262216;61;20550;-53
2021/12/25 08:08:17;0.00;0.00;0.62;0.00;0.00;0.62;1.87;0.97;;;17.30;24.40;;;;;;2261147;61;20354;-55
2021/12/25 08:11:01;0.00;0.00;0.62;0.00;0.00;0.62;1.60;0.80;;;17.20;24.30;;;;;;2261302;61;20601;-56
2021/12/25 08:13:46;0.00;0.00;0.62;0.00;0.00;0.62;1.30;0.70;;;17.20;24.30;;;;;;2262062;61;20466;-54
2021/12/25 08:16:30;0.00;0.00;0.62;0.00;0.00;0.62;1.57;0.90;;;17.20;24.20;;;;;;2261051;61;20639;-59
2021/12/25 08:19:15;0.00;0.00;0.62;0.00;0.00;0.62;1.30;0.60;;;17.20;24.20;;;;;;2261673;61;20798;-55
2021/12/25 08:22:18;0.00;0.00;0.62;0.00;0.00;0.62;1.57;1.00;;;17.20;24.20;;;;;;2261953;61;20577;-59
2021/12/25 08:25:38;0.00;0.00;0.62;0.00;0.00;0.62;1.57;0.80;;;17.20;24.20;;;;;;2261783;61;20361;-57
2021/12/25 08:28:42;0.00;0.00;0.62;0.00;0.00;0.62;1.70;0.90;;;17.10;24.10;;;;;;2262285;61;20500;-56
2021/12/25 08:31:45;0.00;0.00;0.62;0.00;0.00;0.62;1.50;0.70;;;17.20;24.20;;;;;;2261253;61;20373;-57
2021/12/25 08:34:59;0.00;0.00;0.62;0.00;0.00;0.62;1.40;0.90;;;17.10;24.20;;;;;;2261954;61;20417;-59
2021/12/25 08:37:47;0.00;0.00;0.62;0.00;0.00;0.62;1.50;0.70;;;17.10;24.20;;;;;;2260852;61;20437;-59
2021/12/25 08:40:32;0.00;0.00;0.62;0.00;0.00;0.62;1.60;0.80;;;17.10;24.30;;;;;;2261517;61;20764;-57
2021/12/25 08:43:24;0.00;0.00;0.62;0.00;0.00;0.62;2.07;0.90;;;17.10;24.30;;;;;;2262180;61;20365;-56
2021/12/25 08:46:16;0.00;0.00;0.62;0.00;0.00;0.62;1.60;1.00;;;17.10;24.30;;;;;;2261075;61;20386;-57
2021/12/25 08:49:01;0.00;0.00;0.62;0.00;0.00;0.62;1.20;0.70;;;17.10;24.30;;;;;;2261553;61;20757;-55
2021/12/25 08:51:45;0.00;0.00;0.62;0.00;0.00;0.62;1.57;0.87;;;17.10;24.30;;;;;;2262237;61;20742;-57
2021/12/25 08:54:30;0.00;0.00;0.62;0.00;0.00;0.62;1.40;0.77;;;17.10;24.30;;;;;;2261418;61;20362;-57
2021/12/25 08:57:16;0.00;0.00;0.62;0.00;0.00;0.62;1.50;0.80;;;17.00;24.40;;;;;;2262129;61;20745;-56
2021/12/25 09:00:03;0.00;0.00;0.62;0.00;0.00;0.62;1.57;0.80;;;17.00;24.40;;;;;;2261191;61;20416;-54
2021/12/25 09:02:49;0.00;0.00;0.62;0.00;0.00;0.62;1.50;0.80;;;17.10;24.50;;;;;;2261551;61;20370;-56
2021/12/25 09:05:35;0.00;0.00;0.62;0.00;0.00;0.62;2.00;0.80;;;17.00;24.50;;;;;;2263137;48;20681;-56
2021/12/25 09:08:19;0.00;0.00;0.62;0.00;0.00;0.62;2.37;0.90;;;17.00;24.40;;;;;;2261518;61;20420;-58
2021/12/25 09:11:04;0.00;0.00;0.62;0.00;0.00;0.62;1.47;0.70;;;17.10;24.50;;;;;;2261257;61;20405;-59
2021/12/25 09:13:49;0.00;0.00;0.62;0.00;0.00;0.62;1.40;0.83;;;17.10;24.40;;;;;;2261672;61;20795;-56
2021/12/25 09:16:35;0.00;0.00;0.62;0.00;0.00;0.62;1.70;0.93;;;17.10;24.30;;;;;;2261461;61;20385;-57
2021/12/25 09:19:19;0.00;0.00;0.62;0.00;0.00;0.62;1.30;0.80;;;17.10;24.40;;;;;;2261936;61;20371;-59
2021/12/25 09:22:05;0.00;0.00;0.62;0.00;0.00;0.62;1.40;0.80;;;17.10;24.50;;;;;;2261216;61;20769;-54
2021/12/25 09:24:49;0.00;0.00;0.62;0.00;0.00;0.62;1.80;0.90;;;17.10;24.60;;;;;;2261353;61;20725;-56
2021/12/25 09:27:34;0.00;0.00;0.62;0.00;0.00;0.62;1.83;0.90;;;17.10;24.60;;;;;;2261655;61;20381;-56
2021/12/25 09:30:21;0.00;0.00;0.62;0.00;0.00;0.62;1.30;0.70;;;17.20;24.70;;;;;;2261555;61;20358;-57
2021/12/25 09:33:06;0.00;0.00;0.62;0.00;0.00;0.62;1.83;1.00;;;17.20;24.70;;;;;;2261343;61;20416;-56
2021/12/25 09:35:51;0.00;0.00;0.62;0.00;0.00;0.62;2.03;1.17;;;17.20;24.70;;;;;;2261587;61;20361;-57
2021/12/25 09:38:37;0.00;0.00;0.62;0.00;0.00;0.62;1.90;0.97;;;17.20;24.70;;;;;;2261290;61;20627;-54
2021/12/25 09:41:21;0.00;0.00;0.62;0.00;0.00;0.62;1.60;0.97;;;17.20;24.70;;;;;;2261564;61;20422;-56
2021/12/25 09:44:06;0.00;0.00;0.62;0.00;0.00;0.62;1.50;0.90;;;17.30;24.70;;;;;;2261083;61;20458;-59
2021/12/25 09:46:52;0.00;0.00;0.62;0.00;0.00;0.62;1.40;0.80;;;17.30;24.70;;;;;;2261306;61;20381;-58
2021/12/25 09:49:38;0.00;0.00;0.62;0.00;0.00;0.62;1.87;0.90;;;17.30;24.70;;;;;;2261582;61;20342;-57
2021/12/25 09:52:22;0.00;0.00;0.62;0.00;0.00;0.62;1.90;0.90;;;17.30;24.70;;;;;;2261343;61;20845;-53
2021/12/25 09:55:08;0.00;0.00;0.62;0.00;0.00;0.62;1.40;0.80;;;17.30;24.70;;;;;;2261184;61;20697;-54
2021/12/25 09:57:53;0.00;0.00;0.62;0.00;0.00;0.62;1.70;0.90;;;17.40;24.80;;;;;;2261509;61;20421;-60
2021/12/25 10:00:41;0.00;0.00;0.62;0.00;0.00;0.62;1.70;0.80;;;17.40;24.80;;;;;;2261288;61;20398;-56
2021/12/25 10:03:45;0.00;0.00;0.62;0.00;0.00;0.62;1.50;0.70;;;17.50;25.00;;;;;;2261610;61;20615;-59
2021/12/25 10:06:34;0.00;0.00;0.62;0.00;0.00;0.62;1.60;0.97;;;17.50;25.00;;;;;;2261018;61;20703;-59
2021/12/25 10:09:22;0.00;0.00;0.62;0.00;0.00;0.62;1.30;0.70;;;17.60;25.10;;;;;;2261293;61;20401;-56
2021/12/25 10:12:11;0.00;0.00;0.62;0.00;0.00;0.62;2.17;1.00;;;17.60;25.20;;;;;;2261568;61;20400;-57
2021/12/25 10:14:56;0.00;0.00;0.62;0.00;0.00;0.62;1.63;0.90;;;17.60;25.20;;;;;;2261241;61;20373;-60
2021/12/25 10:17:48;0.00;0.00;0.62;0.00;0.00;0.62;1.30;0.70;;;17.60;25.20;;;;;;2261172;61;20433;-56
2021/12/25 10:20:34;0.00;0.00;0.62;0.00;0.00;0.62;1.53;0.80;;;17.70;25.30;;;;;;2258305;61;20481;-57
2021/12/25 10:23:28;0.00;0.00;0.62;0.00;0.00;0.62;1.87;0.80;;;17.70;25.30;;;;;;2261533;61;20576;-57
2021/12/25 10:26:22;0.00;0.00;0.62;0.00;0.00;0.62;1.30;0.80;;;17.70;25.30;;;;;;2261682;61;20385;-58
2021/12/25 10:29:21;0.00;0.00;0.62;0.00;0.00;0.62;1.90;1.00;;;17.80;25.30;;;;;;2261421;61;20362;-54
2021/12/25 10:32:23;0.00;0.00;0.62;0.00;0.00;0.62;1.47;0.70;;;17.80;25.40;;;;;;2261052;61;20405;-57
2021/12/25 10:35:18;0.00;0.00;0.62;0.00;0.00;0.62;1.30;0.80;;;17.90;25.40;;;;;;2261342;61;20358;-56
2021/12/25 10:38:11;0.00;0.00;0.62;0.00;0.00;0.62;1.37;0.80;;;17.90;25.40;;;;;;2261573;61;20350;-58
2021/12/25 10:41:20;0.00;0.00;0.62;0.00;0.00;0.62;2.60;0.83;;;18.00;25.60;;;;;;2261772;61;20385;-58
2021/12/25 10:44:15;0.00;0.00;0.62;0.00;0.00;0.62;1.53;0.80;;;18.00;25.80;;;;;;2261252;61;20396;-57
2021/12/25 10:47:03;0.00;0.00;0.62;0.00;0.00;0.62;1.30;0.70;;;18.10;25.90;;;;;;2260960;61;20424;-56
2021/12/25 10:49:51;0.00;0.00;0.62;0.00;0.00;0.62;1.70;0.70;;;18.10;26.00;;;;;;2261638;61;20381;-58
2021/12/25 10:52:44;0.00;0.00;0.62;0.00;0.00;0.62;1.30;0.80;;;18.20;26.00;;;;;;2261051;61;20393;-57
2021/12/25 10:55:28;0.00;0.00;0.62;0.00;0.00;0.62;2.37;0.90;;;18.20;26.10;;;;;;2261514;61;20400;-58
2021/12/25 10:58:20;0.00;0.00;0.62;0.00;0.00;0.62;1.67;0.70;;;18.30;26.10;;;;;;2260774;61;20741;-56
2021/12/25 11:01:09;0.00;0.00;0.62;0.00;0.00;0.62;1.40;0.80;;;18.30;26.00;;;;;;2261117;61;20382;-59
2021/12/25 11:03:54;0.00;0.00;0.62;0.00;0.00;0.62;1.20;0.60;;;18.40;25.90;;;;;;2261422;61;20412;-57
2021/12/25 11:06:42;0.00;0.00;0.62;0.00;0.00;0.62;1.53;0.70;;;18.40;25.80;;;;;;2261112;61;20421;-54
2021/12/25 11:09:26;0.00;0.00;0.62;0.00;0.00;0.62;2.43;0.70;;;18.50;25.80;;;;;;2261112;61;20365;-55
2021/12/25 11:12:20;0.00;0.00;0.62;0.00;0.00;0.62;1.50;0.90;;;18.50;25.70;;;;;;2261290;61;20565;-56
2021/12/25 11:15:14;0.00;0.00;0.62;0.00;0.00;0.62;1.20;0.60;;;18.60;25.70;;;;;;2261325;61;20357;-57
2021/12/25 11:18:06;0.00;0.00;0.62;0.00;0.00;0.62;1.20;0.70;;;18.70;25.70;;;;;;2261734;61;20424;-57
2021/12/25 11:20:52;0.00;0.00;0.62;0.00;0.00;0.62;1.60;0.70;;;18.70;25.70;;;;;;2261308;61;20418;-54
2021/12/25 11:23:37;0.00;0.00;0.62;0.00;0.00;0.62;1.50;0.77;;;18.80;25.80;;;;;;2261218;61;20364;-59
2021/12/25 11:26:21;0.00;0.00;0.62;0.00;0.00;0.62;1.40;0.70;;;18.80;25.80;;;;;;2261320;61;20772;-58
2021/12/25 11:29:09;0.00;0.00;0.62;0.00;0.00;0.62;1.43;0.80;;;18.90;25.80;;;;;;2261184;61;20393;-56
2021/12/25 11:31:57;0.00;0.00;0.62;0.00;0.00;0.62;1.50;0.80;;;18.90;25.60;;;;;;2261197;61;20354;-56
2021/12/25 11:34:42;0.00;0.00;0.62;0.00;0.00;0.62;1.23;0.60;;;18.90;25.60;;;;;;2260852;61;20381;-59
2021/12/25 11:37:27;0.00;0.00;0.62;0.00;0.00;0.62;1.20;0.60;;;19.00;25.60;;;;;;2261242;61;20602;-58
2021/12/25 11:40:13;0.00;0.00;0.62;0.00;0.00;0.62;1.30;0.70;;;19.00;25.60;;;;;;2261783;61;20632;-59
2021/12/25 11:43:00;0.00;0.00;0.62;0.00;0.00;0.62;1.40;0.70;;;19.00;25.60;;;;;;2261035;61;20457;-58
2021/12/25 11:45:51;0.00;0.00;0.62;0.00;0.00;0.62;1.20;0.70;;;19.10;25.60;;;;;;2260959;61;20365;-57
2021/12/25 11:48:39;0.00;0.00;0.62;0.00;0.00;0.62;1.30;0.70;;;19.10;25.60;;;;;;2261283;61;20409;-59
2021/12/25 11:51:28;0.00;0.00;0.62;0.00;0.00;0.62;1.57;0.70;;;19.10;25.50;;;;;;2261010;61;20478;-55
2021/12/25 11:54:57;0.00;0.00;0.62;0.00;0.00;0.62;1.33;0.80;;;19.10;25.50;;;;;;2261439;61;20414;-58
2021/12/25 11:58:00;0.00;0.00;0.62;0.00;0.00;0.62;1.20;0.60;;;19.10;25.50;;;;;;2260811;61;20436;-54
2021/12/25 12:00:48;0.00;0.00;0.62;0.00;0.00;0.62;1.30;0.80;;;19.20;25.50;;;;;;2261145;61;20389;-55
2021/12/25 12:03:41;0.00;0.00;0.62;0.00;0.00;0.62;1.20;0.60;;;19.20;25.50;;;;;;2261202;61;20400;-55
2021/12/25 12:07:04;0.00;0.00;0.62;0.00;0.00;0.62;1.60;0.60;;;19.20;25.40;;;;;;2260907;61;20397;-55
2021/12/25 12:10:17;0.00;0.00;0.62;0.00;0.00;0.62;1.20;0.60;;;19.20;25.40;;;;;;2261164;61;20559;-55
2021/12/25 12:13:27;0.00;0.00;0.62;0.00;0.00;0.62;1.13;0.60;;;19.20;25.30;;;;;;2256433;61;20362;-58
2021/12/25 12:16:41;0.00;0.00;0.62;0.00;0.00;0.62;1.33;0.80;;;19.20;25.30;;;;;;2261087;61;20397;-53
2021/12/25 12:19:51;0.00;0.00;0.62;0.00;0.00;0.62;1.60;1.10;;;19.20;25.20;;;;;;2257685;61;20362;-57